sensor_id;sensor_type;location;lat;lon;timestamp;pressure;altitude;pressure_sealevel;temperature;humidity
35892;BME280;21993;42.672;23.296;2023-09-07T00:00:31;95199.00;;;21.81;62.92
35892;BME280;21993;42.672;23.296;2023-09-07T00:02:56;95194.22;;;21.76;62.97
35892;BME280;21993;42.672;23.296;2023-09-07T00:05:22;95184.56;;;21.75;62.92
35892;BME280;21993;42.672;23.296;2023-09-07T00:07:47;95182.16;;;21.59;63.58
35892;BME280;21993;42.672;23.296;2023-09-07T00:10:13;95181.25;;;21.73;63.27
35892;BME280;21993;42.672;23.296;2023-09-07T00:12:39;95177.38;;;21.76;63.46
35892;BME280;21993;42.672;23.296;2023-09-07T00:15:05;95177.44;;;21.82;63.35
35892;BME280;21993;42.672;23.296;2023-09-07T00:17:31;95175.16;;;21.79;63.30
35892;BME280;21993;42.672;23.296;2023-09-07T00:19:57;95182.97;;;21.81;63.35
35892;BME280;21993;42.672;23.296;2023-09-07T00:22:23;95183.59;;;21.83;63.29
35892;BME280;21993;42.672;23.296;2023-09-07T00:24:50;95178.47;;;21.81;63.38
35892;BME280;21993;42.672;23.296;2023-09-07T00:27:16;95183.38;;;21.78;63.87
35892;BME280;21993;42.672;23.296;2023-09-07T00:29:41;95182.34;;;21.79;63.74
35892;BME280;21993;42.672;23.296;2023-09-07T00:32:07;95187.69;;;21.79;64.04
35892;BME280;21993;42.672;23.296;2023-09-07T00:34:33;95182.16;;;21.80;63.94
35892;BME280;21993;42.672;23.296;2023-09-07T00:36:59;95182.56;;;21.84;63.72
35892;BME280;21993;42.672;23.296;2023-09-07T00:39:25;95185.38;;;21.76;63.77
35892;BME280;21993;42.672;23.296;2023-09-07T00:41:50;95186.81;;;21.72;64.20
35892;BME280;21993;42.672;23.296;2023-09-07T00:44:16;95183.88;;;21.67;64.24
35892;BME280;21993;42.672;23.296;2023-09-07T00:46:42;95178.53;;;21.67;64.79
35892;BME280;21993;42.672;23.296;2023-09-07T00:49:10;95178.34;;;21.68;64.63
35892;BME280;21993;42.672;23.296;2023-09-07T00:51:36;95175.50;;;21.70;64.69
35892;BME280;21993;42.672;23.296;2023-09-07T00:54:01;95181.66;;;21.70;64.42
35892;BME280;21993;42.672;23.296;2023-09-07T00:56:26;95173.72;;;21.55;64.97
35892;BME280;21993;42.672;23.296;2023-09-07T00:58:53;95172.19;;;21.46;65.52
35892;BME280;21993;42.672;23.296;2023-09-07T01:01:25;95167.53;;;21.55;65.13
35892;BME280;21993;42.672;23.296;2023-09-07T01:03:50;95169.63;;;21.59;64.90
35892;BME280;21993;42.672;23.296;2023-09-07T01:06:21;95160.97;;;21.57;65.36
35892;BME280;21993;42.672;23.296;2023-09-07T01:08:51;95160.41;;;21.41;65.29
35892;BME280;21993;42.672;23.296;2023-09-07T01:11:19;95166.38;;;21.43;65.41
35892;BME280;21993;42.672;23.296;2023-09-07T01:13:52;95157.94;;;21.39;66.43
35892;BME280;21993;42.672;23.296;2023-09-07T01:16:19;95166.50;;;21.34;66.19
35892;BME280;21993;42.672;23.296;2023-09-07T01:18:45;95160.88;;;21.44;66.21
35892;BME280;21993;42.672;23.296;2023-09-07T01:21:11;95155.69;;;21.43;66.50
35892;BME280;21993;42.672;23.296;2023-09-07T01:23:41;95164.41;;;21.51;66.05
35892;BME280;21993;42.672;23.296;2023-09-07T01:26:08;95164.41;;;21.51;66.27
35892;BME280;21993;42.672;23.296;2023-09-07T01:28:34;95162.56;;;21.52;65.88
35892;BME280;21993;42.672;23.296;2023-09-07T01:31:00;95165.50;;;21.57;65.65
35892;BME280;21993;42.672;23.296;2023-09-07T01:33:26;95160.47;;;21.47;65.91
35892;BME280;21993;42.672;23.296;2023-09-07T01:35:52;95161.88;;;21.43;65.81
35892;BME280;21993;42.672;23.296;2023-09-07T01:38:17;95166.25;;;21.51;65.83
35892;BME280;21993;42.672;23.296;2023-09-07T01:40:43;95166.97;;;21.38;66.17
35892;BME280;21993;42.672;23.296;2023-09-07T01:43:11;95163.69;;;21.36;66.52
35892;BME280;21993;42.672;23.296;2023-09-07T01:45:36;95168.94;;;21.51;66.01
35892;BME280;21993;42.672;23.296;2023-09-07T01:48:02;95166.72;;;21.54;65.93
35892;BME280;21993;42.672;23.296;2023-09-07T01:50:28;95164.81;;;21.48;65.98
35892;BME280;21993;42.672;23.296;2023-09-07T01:52:54;95163.34;;;21.46;66.38
35892;BME280;21993;42.672;23.296;2023-09-07T01:55:19;95166.59;;;21.41;66.41
35892;BME280;21993;42.672;23.296;2023-09-07T01:57:44;95176.91;;;21.44;66.50
35892;BME280;21993;42.672;23.296;2023-09-07T02:00:11;95174.22;;;21.44;66.40
35892;BME280;21993;42.672;23.296;2023-09-07T02:02:37;95166.91;;;21.31;66.51
35892;BME280;21993;42.672;23.296;2023-09-07T02:05:03;95167.41;;;21.42;66.34
35892;BME280;21993;42.672;23.296;2023-09-07T02:07:29;95170.19;;;21.33;66.09
35892;BME280;21993;42.672;23.296;2023-09-07T02:09:54;95163.00;;;21.34;66.13
35892;BME280;21993;42.672;23.296;2023-09-07T02:12:19;95171.94;;;21.41;65.90
35892;BME280;21993;42.672;23.296;2023-09-07T02:14:45;95161.88;;;21.43;65.82
35892;BME280;21993;42.672;23.296;2023-09-07T02:17:11;95165.06;;;21.53;65.59
35892;BME280;21993;42.672;23.296;2023-09-07T02:19:39;95168.72;;;21.52;65.57
35892;BME280;21993;42.672;23.296;2023-09-07T02:22:04;95168.16;;;21.57;65.90
35892;BME280;21993;42.672;23.296;2023-09-07T02:24:30;95167.22;;;21.43;66.33
35892;BME280;21993;42.672;23.296;2023-09-07T02:26:55;95171.03;;;21.34;66.44
35892;BME280;21993;42.672;23.296;2023-09-07T02:29:20;95180.53;;;21.37;66.88
35892;BME280;21993;42.672;23.296;2023-09-07T02:31:46;95172.94;;;21.40;66.45
35892;BME280;21993;42.672;23.296;2023-09-07T02:34:11;95170.66;;;21.37;66.79
35892;BME280;21993;42.672;23.296;2023-09-07T02:36:36;95176.25;;;21.42;66.46
35892;BME280;21993;42.672;23.296;2023-09-07T02:39:02;95176.50;;;21.47;66.12
35892;BME280;21993;42.672;23.296;2023-09-07T02:41:28;95179.56;;;21.44;66.57
35892;BME280;21993;42.672;23.296;2023-09-07T02:43:54;95181.72;;;21.34;66.54
35892;BME280;21993;42.672;23.296;2023-09-07T02:46:19;95179.25;;;21.32;66.95
35892;BME280;21993;42.672;23.296;2023-09-07T02:48:45;95185.09;;;21.43;66.65
35892;BME280;21993;42.672;23.296;2023-09-07T02:51:10;95183.81;;;21.39;66.64
35892;BME280;21993;42.672;23.296;2023-09-07T02:53:35;95177.91;;;21.43;66.97
35892;BME280;21993;42.672;23.296;2023-09-07T02:56:01;95180.69;;;21.35;67.41
35892;BME280;21993;42.672;23.296;2023-09-07T02:58:29;95176.97;;;21.29;67.51
35892;BME280;21993;42.672;23.296;2023-09-07T03:00:54;95177.88;;;21.22;67.70
35892;BME280;21993;42.672;23.296;2023-09-07T03:03:20;95180.06;;;21.18;67.74
35892;BME280;21993;42.672;23.296;2023-09-07T03:05:45;95180.34;;;21.23;67.68
35892;BME280;21993;42.672;23.296;2023-09-07T03:08:11;95180.53;;;21.22;68.00
35892;BME280;21993;42.672;23.296;2023-09-07T03:10:36;95180.91;;;21.19;67.93
35892;BME280;21993;42.672;23.296;2023-09-07T03:13:06;95176.56;;;21.32;67.30
35892;BME280;21993;42.672;23.296;2023-09-07T03:15:32;95185.59;;;21.31;67.82
35892;BME280;21993;42.672;23.296;2023-09-07T03:17:57;95179.44;;;21.31;67.94
35892;BME280;21993;42.672;23.296;2023-09-07T03:20:23;95174.41;;;21.06;68.26
35892;BME280;21993;42.672;23.296;2023-09-07T03:22:48;95172.47;;;21.15;68.31
35892;BME280;21993;42.672;23.296;2023-09-07T03:25:14;95174.03;;;21.09;69.01
35892;BME280;21993;42.672;23.296;2023-09-07T03:27:39;95181.22;;;21.09;68.99
35892;BME280;21993;42.672;23.296;2023-09-07T03:30:06;95191.34;;;21.14;69.07
35892;BME280;21993;42.672;23.296;2023-09-07T03:32:32;95183.44;;;21.05;69.29
35892;BME280;21993;42.672;23.296;2023-09-07T03:35:03;95185.91;;;21.07;69.25
35892;BME280;21993;42.672;23.296;2023-09-07T03:37:29;95189.88;;;21.11;69.60
35892;BME280;21993;42.672;23.296;2023-09-07T03:39:57;95185.19;;;21.13;69.80
35892;BME280;21993;42.672;23.296;2023-09-07T03:42:23;95190.19;;;21.23;69.57
35892;BME280;21993;42.672;23.296;2023-09-07T03:44:48;95189.59;;;21.06;70.05
35892;BME280;21993;42.672;23.296;2023-09-07T03:47:14;95185.84;;;21.00;70.70
35892;BME280;21993;42.672;23.296;2023-09-07T03:49:41;95190.44;;;21.06;70.52
35892;BME280;21993;42.672;23.296;2023-09-07T03:52:06;95202.22;;;21.12;70.39
35892;BME280;21993;42.672;23.296;2023-09-07T03:54:32;95201.56;;;21.10;70.61
35892;BME280;21993;42.672;23.296;2023-09-07T03:56:57;95203.03;;;21.13;70.76
35892;BME280;21993;42.672;23.296;2023-09-07T03:59:23;95205.06;;;21.11;71.04
35892;BME280;21993;42.672;23.296;2023-09-07T04:01:48;95212.44;;;21.08;70.89
35892;BME280;21993;42.672;23.296;2023-09-07T04:04:14;95214.38;;;21.00;71.54
35892;BME280;21993;42.672;23.296;2023-09-07T04:06:40;95216.53;;;20.90;71.39
35892;BME280;21993;42.672;23.296;2023-09-07T04:09:05;95208.03;;;21.01;71.31
35892;BME280;21993;42.672;23.296;2023-09-07T04:11:31;95205.19;;;21.02;71.32
35892;BME280;21993;42.672;23.296;2023-09-07T04:13:57;95209.50;;;21.03;71.46
35892;BME280;21993;42.672;23.296;2023-09-07T04:16:22;95205.94;;;20.96;71.63
35892;BME280;21993;42.672;23.296;2023-09-07T04:18:48;95201.66;;;21.02;71.94
35892;BME280;21993;42.672;23.296;2023-09-07T04:21:13;95205.63;;;21.06;71.70
35892;BME280;21993;42.672;23.296;2023-09-07T04:23:38;95203.50;;;21.01;71.66
35892;BME280;21993;42.672;23.296;2023-09-07T04:26:09;95208.22;;;20.99;72.41
35892;BME280;21993;42.672;23.296;2023-09-07T04:28:35;95212.47;;;20.94;72.40
35892;BME280;21993;42.672;23.296;2023-09-07T04:31:01;95209.03;;;21.00;72.20
35892;BME280;21993;42.672;23.296;2023-09-07T04:33:30;95216.50;;;21.04;72.34
35892;BME280;21993;42.672;23.296;2023-09-07T04:35:55;95207.19;;;21.00;72.10
35892;BME280;21993;42.672;23.296;2023-09-07T04:38:20;95209.97;;;20.92;72.16
35892;BME280;21993;42.672;23.296;2023-09-07T04:40:46;95209.63;;;20.95;72.06
35892;BME280;21993;42.672;23.296;2023-09-07T04:43:11;95215.31;;;20.92;72.46
35892;BME280;21993;42.672;23.296;2023-09-07T04:45:36;95228.22;;;20.89;72.07
35892;BME280;21993;42.672;23.296;2023-09-07T04:48:03;95218.81;;;20.93;71.89
35892;BME280;21993;42.672;23.296;2023-09-07T04:50:28;95214.69;;;20.90;71.46
35892;BME280;21993;42.672;23.296;2023-09-07T04:52:53;95223.97;;;20.94;71.43
35892;BME280;21993;42.672;23.296;2023-09-07T04:55:41;95216.72;;;20.88;71.41
35892;BME280;21993;42.672;23.296;2023-09-07T04:58:29;95229.69;;;20.91;70.79
35892;BME280;21993;42.672;23.296;2023-09-07T05:01:04;95226.56;;;20.88;70.79
35892;BME280;21993;42.672;23.296;2023-09-07T05:03:30;95225.66;;;20.80;71.13
35892;BME280;21993;42.672;23.296;2023-09-07T05:05:56;95222.97;;;20.80;71.38
35892;BME280;21993;42.672;23.296;2023-09-07T05:08:22;95222.69;;;20.90;70.63
35892;BME280;21993;42.672;23.296;2023-09-07T05:10:54;95228.31;;;20.95;69.89
35892;BME280;21993;42.672;23.296;2023-09-07T05:13:21;95218.38;;;20.89;69.73
35892;BME280;21993;42.672;23.296;2023-09-07T05:15:47;95219.00;;;20.91;70.19
35892;BME280;21993;42.672;23.296;2023-09-07T05:18:13;95222.69;;;20.90;69.88
35892;BME280;21993;42.672;23.296;2023-09-07T05:20:39;95230.88;;;20.89;69.63
35892;BME280;21993;42.672;23.296;2023-09-07T05:25:52;95232.16;;;20.93;69.88
35892;BME280;21993;42.672;23.296;2023-09-07T05:28:18;95225.34;;;21.05;70.59
35892;BME280;21993;42.672;23.296;2023-09-07T05:30:43;95235.28;;;20.96;70.82
35892;BME280;21993;42.672;23.296;2023-09-07T05:33:10;95239.22;;;21.00;71.71
35892;BME280;21993;42.672;23.296;2023-09-07T05:35:36;95232.03;;;21.01;71.50
35892;BME280;21993;42.672;23.296;2023-09-07T05:38:02;95238.50;;;20.92;71.79
35892;BME280;21993;42.672;23.296;2023-09-07T05:40:28;95242.72;;;21.01;71.75
35892;BME280;21993;42.672;23.296;2023-09-07T05:42:53;95233.88;;;21.00;70.95
35892;BME280;21993;42.672;23.296;2023-09-07T05:45:19;95232.81;;;20.95;71.78
35892;BME280;21993;42.672;23.296;2023-09-07T05:47:44;95235.72;;;21.00;71.28
35892;BME280;21993;42.672;23.296;2023-09-07T05:50:10;95233.84;;;20.94;71.60
35892;BME280;21993;42.672;23.296;2023-09-07T05:52:35;95242.66;;;20.94;71.31
35892;BME280;21993;42.672;23.296;2023-09-07T05:55:01;95240.34;;;20.91;70.55
35892;BME280;21993;42.672;23.296;2023-09-07T05:57:26;95256.00;;;20.94;70.77
35892;BME280;21993;42.672;23.296;2023-09-07T05:59:52;95241.06;;;21.00;70.05
35892;BME280;21993;42.672;23.296;2023-09-07T06:02:17;95240.25;;;20.99;70.73
35892;BME280;21993;42.672;23.296;2023-09-07T06:04:42;95238.78;;;20.97;70.43
35892;BME280;21993;42.672;23.296;2023-09-07T06:07:08;95244.31;;;20.95;70.67
35892;BME280;21993;42.672;23.296;2023-09-07T06:09:33;95246.06;;;20.88;71.18
35892;BME280;21993;42.672;23.296;2023-09-07T06:11:59;95244.50;;;20.94;70.75
35892;BME280;21993;42.672;23.296;2023-09-07T06:14:24;95247.34;;;20.92;71.30
35892;BME280;21993;42.672;23.296;2023-09-07T06:16:49;95242.91;;;21.14;70.20
35892;BME280;21993;42.672;23.296;2023-09-07T06:19:15;95245.56;;;21.14;70.72
35892;BME280;21993;42.672;23.296;2023-09-07T06:21:41;95238.47;;;21.21;70.07
35892;BME280;21993;42.672;23.296;2023-09-07T06:24:07;95238.81;;;21.33;69.39
35892;BME280;21993;42.672;23.296;2023-09-07T06:26:33;95244.69;;;21.43;69.11
35892;BME280;21993;42.672;23.296;2023-09-07T06:28:58;95252.41;;;21.53;67.76
35892;BME280;21993;42.672;23.296;2023-09-07T06:31:24;95242.47;;;21.68;66.58
35892;BME280;21993;42.672;23.296;2023-09-07T06:33:49;95252.22;;;21.54;66.57
35892;BME280;21993;42.672;23.296;2023-09-07T06:36:14;95250.06;;;21.64;66.43
35892;BME280;21993;42.672;23.296;2023-09-07T06:38:40;95247.19;;;21.66;66.74
35892;BME280;21993;42.672;23.296;2023-09-07T06:41:05;95249.66;;;21.89;65.87
35892;BME280;21993;42.672;23.296;2023-09-07T06:43:32;95253.03;;;21.98;64.66
35892;BME280;21993;42.672;23.296;2023-09-07T06:46:08;95253.03;;;21.98;65.08
35892;BME280;21993;42.672;23.296;2023-09-07T06:48:34;95251.50;;;22.10;63.65
35892;BME280;21993;42.672;23.296;2023-09-07T06:51:04;95253.22;;;22.17;63.30
35892;BME280;21993;42.672;23.296;2023-09-07T06:53:30;95252.75;;;22.35;61.91
35892;BME280;21993;42.672;23.296;2023-09-07T06:56:02;95250.50;;;22.39;60.61
35892;BME280;21993;42.672;23.296;2023-09-07T06:58:28;95261.59;;;22.36;61.69
35892;BME280;21993;42.672;23.296;2023-09-07T07:00:58;95258.44;;;22.54;60.84
35892;BME280;21993;42.672;23.296;2023-09-07T07:03:28;95250.28;;;22.68;60.73
35892;BME280;21993;42.672;23.296;2023-09-07T07:05:54;95237.72;;;22.69;60.23
35892;BME280;21993;42.672;23.296;2023-09-07T07:08:19;95245.16;;;22.73;60.30
35892;BME280;21993;42.672;23.296;2023-09-07T07:10:45;95240.56;;;22.89;59.34
35892;BME280;21993;42.672;23.296;2023-09-07T07:13:10;95246.78;;;23.02;59.22
35892;BME280;21993;42.672;23.296;2023-09-07T07:15:36;95245.53;;;22.98;59.51
35892;BME280;21993;42.672;23.296;2023-09-07T07:18:01;95251.47;;;22.94;59.75
35892;BME280;21993;42.672;23.296;2023-09-07T07:20:33;95254.81;;;23.02;59.35
35892;BME280;21993;42.672;23.296;2023-09-07T07:22:59;95252.63;;;23.19;59.34
35892;BME280;21993;42.672;23.296;2023-09-07T07:25:24;95254.28;;;23.20;58.47
35892;BME280;21993;42.672;23.296;2023-09-07T07:27:49;95259.91;;;23.32;58.62
35892;BME280;21993;42.672;23.296;2023-09-07T07:30:15;95268.50;;;23.21;58.42
35892;BME280;21993;42.672;23.296;2023-09-07T07:32:40;95277.41;;;23.35;58.11
35892;BME280;21993;42.672;23.296;2023-09-07T07:35:06;95268.34;;;23.36;57.87
35892;BME280;21993;42.672;23.296;2023-09-07T07:37:32;95274.13;;;23.33;58.30
35892;BME280;21993;42.672;23.296;2023-09-07T07:39:57;95271.66;;;23.38;57.71
35892;BME280;21993;42.672;23.296;2023-09-07T07:42:22;95269.44;;;23.48;56.81
35892;BME280;21993;42.672;23.296;2023-09-07T07:44:48;95284.59;;;23.27;58.60
35892;BME280;21993;42.672;23.296;2023-09-07T07:47:13;95270.84;;;23.44;57.75
35892;BME280;21993;42.672;23.296;2023-09-07T07:49:39;95277.44;;;23.41;57.83
35892;BME280;21993;42.672;23.296;2023-09-07T07:52:04;95279.06;;;23.36;58.00
35892;BME280;21993;42.672;23.296;2023-09-07T07:54:30;95272.03;;;23.21;58.41
35892;BME280;21993;42.672;23.296;2023-09-07T07:56:55;95288.09;;;23.28;58.57
35892;BME280;21993;42.672;23.296;2023-09-07T07:59:21;95281.47;;;23.17;58.49
35892;BME280;21993;42.672;23.296;2023-09-07T08:01:46;95283.28;;;23.10;57.69
35892;BME280;21993;42.672;23.296;2023-09-07T08:04:11;95273.59;;;23.09;57.91
35892;BME280;21993;42.672;23.296;2023-09-07T08:06:37;95275.31;;;23.23;57.52
35892;BME280;21993;42.672;23.296;2023-09-07T08:09:02;95277.22;;;23.29;57.62
35892;BME280;21993;42.672;23.296;2023-09-07T08:11:28;95275.94;;;23.25;58.57
35892;BME280;21993;42.672;23.296;2023-09-07T08:13:53;95272.69;;;23.43;57.09
35892;BME280;21993;42.672;23.296;2023-09-07T08:19:03;95278.50;;;23.53;56.53
35892;BME280;21993;42.672;23.296;2023-09-07T08:21:29;95270.53;;;23.67;54.54
35892;BME280;21993;42.672;23.296;2023-09-07T08:23:54;95271.97;;;23.63;54.94
35892;BME280;21993;42.672;23.296;2023-09-07T08:26:21;95265.16;;;23.60;55.77
35892;BME280;21993;42.672;23.296;2023-09-07T08:28:46;95268.44;;;23.55;56.21
35892;BME280;21993;42.672;23.296;2023-09-07T08:31:12;95267.16;;;23.51;56.19
35892;BME280;21993;42.672;23.296;2023-09-07T08:33:41;95262.50;;;23.73;54.91
35892;BME280;21993;42.672;23.296;2023-09-07T08:36:06;95262.34;;;23.88;54.30
35892;BME280;21993;42.672;23.296;2023-09-07T08:38:33;95265.03;;;23.88;54.31
35892;BME280;21993;42.672;23.296;2023-09-07T08:41:18;95266.44;;;23.77;53.86
35892;BME280;21993;42.672;23.296;2023-09-07T08:43:45;95263.16;;;23.95;53.09
35892;BME280;21993;42.672;23.296;2023-09-07T08:46:18;95261.09;;;23.91;53.70
35892;BME280;21993;42.672;23.296;2023-09-07T08:48:46;95258.63;;;24.02;53.01
35892;BME280;21993;42.672;23.296;2023-09-07T08:51:12;95257.59;;;24.03;53.55
35892;BME280;21993;42.672;23.296;2023-09-07T08:53:39;95262.53;;;24.13;51.32
35892;BME280;21993;42.672;23.296;2023-09-07T08:56:06;95253.06;;;24.04;51.96
35892;BME280;21993;42.672;23.296;2023-09-07T08:58:36;95247.69;;;24.04;51.90
35892;BME280;21993;42.672;23.296;2023-09-07T09:01:01;95258.44;;;23.97;52.46
35892;BME280;21993;42.672;23.296;2023-09-07T09:03:27;95243.75;;;24.13;51.32
35892;BME280;21993;42.672;23.296;2023-09-07T09:05:55;95243.78;;;24.26;50.24
35892;BME280;21993;42.672;23.296;2023-09-07T09:08:21;95252.03;;;24.18;51.30
35892;BME280;21993;42.672;23.296;2023-09-07T09:10:58;95251.22;;;24.18;51.13
35892;BME280;21993;42.672;23.296;2023-09-07T09:13:30;95239.22;;;24.27;51.05
35892;BME280;21993;42.672;23.296;2023-09-07T09:15:59;95246.69;;;24.45;50.66
35892;BME280;21993;42.672;23.296;2023-09-07T09:18:24;95255.34;;;24.53;50.41
35892;BME280;21993;42.672;23.296;2023-09-07T09:20:52;95245.03;;;24.57;49.04
35892;BME280;21993;42.672;23.296;2023-09-07T09:23:17;95239.44;;;24.65;48.03
35892;BME280;21993;42.672;23.296;2023-09-07T09:25:43;95235.09;;;24.64;48.55
35892;BME280;21993;42.672;23.296;2023-09-07T09:28:09;95235.66;;;24.79;47.89
35892;BME280;21993;42.672;23.296;2023-09-07T09:30:35;95238.78;;;24.83;47.79
35892;BME280;21993;42.672;23.296;2023-09-07T09:33:01;95233.78;;;24.86;47.34
35892;BME280;21993;42.672;23.296;2023-09-07T09:35:28;95234.25;;;24.63;48.43
35892;BME280;21993;42.672;23.296;2023-09-07T09:37:55;95232.78;;;24.81;47.91
35892;BME280;21993;42.672;23.296;2023-09-07T09:40:21;95230.28;;;24.79;47.80
35892;BME280;21993;42.672;23.296;2023-09-07T09:42:47;95232.34;;;24.90;46.76
35892;BME280;21993;42.672;23.296;2023-09-07T09:45:13;95225.28;;;24.96;46.71
35892;BME280;21993;42.672;23.296;2023-09-07T09:47:41;95235.41;;;25.01;46.26
35892;BME280;21993;42.672;23.296;2023-09-07T09:50:10;95229.91;;;24.82;46.98
35892;BME280;21993;42.672;23.296;2023-09-07T09:52:37;95226.38;;;24.82;46.85
35892;BME280;21993;42.672;23.296;2023-09-07T09:55:04;95236.47;;;24.86;46.75
35892;BME280;21993;42.672;23.296;2023-09-07T09:57:32;95233.16;;;24.91;47.25
35892;BME280;21993;42.672;23.296;2023-09-07T09:59:58;95220.59;;;24.78;47.23
35892;BME280;21993;42.672;23.296;2023-09-07T10:02:25;95221.25;;;24.74;47.65
35892;BME280;21993;42.672;23.296;2023-09-07T10:04:52;95216.47;;;24.82;47.90
35892;BME280;21993;42.672;23.296;2023-09-07T10:07:19;95212.75;;;24.77;48.27
35892;BME280;21993;42.672;23.296;2023-09-07T10:09:44;95213.13;;;24.80;47.79
35892;BME280;21993;42.672;23.296;2023-09-07T10:12:13;95212.97;;;24.82;48.42
35892;BME280;21993;42.672;23.296;2023-09-07T10:14:39;95204.84;;;24.88;47.41
35892;BME280;21993;42.672;23.296;2023-09-07T10:17:05;95214.34;;;24.97;47.00
35892;BME280;21993;42.672;23.296;2023-09-07T10:19:36;95216.41;;;24.95;47.03
35892;BME280;21993;42.672;23.296;2023-09-07T10:22:21;95212.28;;;24.93;46.72
35892;BME280;21993;42.672;23.296;2023-09-07T10:25:27;95211.25;;;24.87;47.15
35892;BME280;21993;42.672;23.296;2023-09-07T10:27:55;95207.53;;;24.88;47.35
35892;BME280;21993;42.672;23.296;2023-09-07T10:30:20;95199.09;;;24.85;46.75
35892;BME280;21993;42.672;23.296;2023-09-07T10:32:49;95201.75;;;24.91;46.48
35892;BME280;21993;42.672;23.296;2023-09-07T10:35:20;95207.97;;;24.85;47.01
35892;BME280;21993;42.672;23.296;2023-09-07T10:37:50;95213.50;;;24.97;46.93
35892;BME280;21993;42.672;23.296;2023-09-07T10:40:20;95203.84;;;24.89;46.59
35892;BME280;21993;42.672;23.296;2023-09-07T10:42:46;95202.34;;;25.00;46.50
35892;BME280;21993;42.672;23.296;2023-09-07T10:45:14;95204.63;;;24.96;46.23
35892;BME280;21993;42.672;23.296;2023-09-07T10:47:45;95212.06;;;24.94;46.66
35892;BME280;21993;42.672;23.296;2023-09-07T10:50:14;95201.31;;;25.08;46.23
35892;BME280;21993;42.672;23.296;2023-09-07T10:52:43;95190.16;;;25.04;46.13
35892;BME280;21993;42.672;23.296;2023-09-07T10:55:10;95194.91;;;25.02;46.00
35892;BME280;21993;42.672;23.296;2023-09-07T10:57:43;95190.72;;;25.13;45.55
35892;BME280;21993;42.672;23.296;2023-09-07T11:00:10;95199.06;;;24.91;46.97
35892;BME280;21993;42.672;23.296;2023-09-07T11:02:38;95183.53;;;25.00;45.83
35892;BME280;21993;42.672;23.296;2023-09-07T11:05:05;95190.44;;;24.83;47.41
35892;BME280;21993;42.672;23.296;2023-09-07T11:07:30;95189.41;;;24.77;47.69
35892;BME280;21993;42.672;23.296;2023-09-07T11:09:56;95194.09;;;24.88;47.32
35892;BME280;21993;42.672;23.296;2023-09-07T11:12:21;95189.53;;;25.02;46.73
35892;BME280;21993;42.672;23.296;2023-09-07T11:14:47;95189.97;;;25.06;46.24
35892;BME280;21993;42.672;23.296;2023-09-07T11:17:13;95188.31;;;24.98;46.93
35892;BME280;21993;42.672;23.296;2023-09-07T11:19:38;95184.16;;;24.95;46.97
35892;BME280;21993;42.672;23.296;2023-09-07T11:22:04;95181.91;;;24.99;47.33
35892;BME280;21993;42.672;23.296;2023-09-07T11:24:31;95189.94;;;24.99;47.27
35892;BME280;21993;42.672;23.296;2023-09-07T11:26:57;95182.91;;;25.05;47.57
35892;BME280;21993;42.672;23.296;2023-09-07T11:29:22;95185.13;;;25.21;46.46
35892;BME280;21993;42.672;23.296;2023-09-07T11:31:48;95189.28;;;25.17;46.85
35892;BME280;21993;42.672;23.296;2023-09-07T11:34:14;95188.25;;;25.18;46.50
35892;BME280;21993;42.672;23.296;2023-09-07T11:36:41;95187.06;;;25.07;46.37
35892;BME280;21993;42.672;23.296;2023-09-07T11:39:07;95176.91;;;25.09;47.02
35892;BME280;21993;42.672;23.296;2023-09-07T11:41:44;95182.66;;;25.13;46.77
35892;BME280;21993;42.672;23.296;2023-09-07T11:44:10;95182.50;;;25.08;47.24
35892;BME280;21993;42.672;23.296;2023-09-07T11:46:36;95175.84;;;25.17;47.07
35892;BME280;21993;42.672;23.296;2023-09-07T11:49:02;95177.13;;;25.08;46.57
35892;BME280;21993;42.672;23.296;2023-09-07T11:51:27;95181.25;;;25.10;47.16
35892;BME280;21993;42.672;23.296;2023-09-07T11:53:53;95171.75;;;25.01;46.98
35892;BME280;21993;42.672;23.296;2023-09-07T11:56:18;95167.22;;;25.08;46.84
35892;BME280;21993;42.672;23.296;2023-09-07T11:58:44;95169.28;;;25.06;47.03
35892;BME280;21993;42.672;23.296;2023-09-07T12:01:09;95171.53;;;25.09;47.27
35892;BME280;21993;42.672;23.296;2023-09-07T12:03:35;95171.97;;;24.99;47.08
35892;BME280;21993;42.672;23.296;2023-09-07T12:06:00;95170.56;;;24.90;47.52
35892;BME280;21993;42.672;23.296;2023-09-07T12:08:26;95171.38;;;24.97;47.60
35892;BME280;21993;42.672;23.296;2023-09-07T12:10:51;95170.94;;;24.94;46.75
35892;BME280;21993;42.672;23.296;2023-09-07T12:13:17;95170.34;;;24.92;47.20
35892;BME280;21993;42.672;23.296;2023-09-07T12:15:42;95172.59;;;24.95;47.00
35892;BME280;21993;42.672;23.296;2023-09-07T12:18:07;95168.69;;;24.97;47.19
35892;BME280;21993;42.672;23.296;2023-09-07T12:20:33;95160.88;;;24.89;47.34
35892;BME280;21993;42.672;23.296;2023-09-07T12:23:00;95159.25;;;24.82;47.58
35892;BME280;21993;42.672;23.296;2023-09-07T12:25:27;95165.81;;;24.92;47.34
35892;BME280;21993;42.672;23.296;2023-09-07T12:27:52;95164.75;;;25.07;46.32
35892;BME280;21993;42.672;23.296;2023-09-07T12:30:19;95161.00;;;25.08;46.86
35892;BME280;21993;42.672;23.296;2023-09-07T12:32:45;95157.72;;;24.99;46.98
35892;BME280;21993;42.672;23.296;2023-09-07T12:35:10;95162.06;;;25.07;45.85
35892;BME280;21993;42.672;23.296;2023-09-07T12:40:30;95158.31;;;25.01;46.36
35892;BME280;21993;42.672;23.296;2023-09-07T12:42:55;95169.47;;;25.05;46.55
35892;BME280;21993;42.672;23.296;2023-09-07T12:45:20;95159.94;;;25.15;45.89
35892;BME280;21993;42.672;23.296;2023-09-07T12:47:46;95167.00;;;25.03;46.03
35892;BME280;21993;42.672;23.296;2023-09-07T12:50:11;95167.00;;;25.03;46.01
35892;BME280;21993;42.672;23.296;2023-09-07T12:52:37;95173.22;;;25.04;46.13
35892;BME280;21993;42.672;23.296;2023-09-07T12:55:04;95163.72;;;24.94;46.30